createdAt,value
2019-05-11T00:00:20.684Z,98.90
2019-05-11T00:02:50.227Z,98.90
2019-05-11T00:05:19.762Z,98.80
2019-05-11T00:07:49.325Z,98.80
2019-05-11T00:10:18.835Z,98.70
2019-05-11T00:12:48.305Z,98.60
2019-05-11T00:15:17.843Z,98.50
2019-05-11T00:17:47.353Z,98.50
2019-05-11T00:20:16.909Z,98.50
2019-05-11T00:22:46.374Z,98.80
2019-05-11T00:25:16.294Z,98.40
2019-05-11T00:27:45.754Z,98.40
2019-05-11T00:30:15.520Z,98.40
2019-05-11T00:32:45.124Z,98.40
2019-05-11T00:35:14.596Z,98.40
2019-05-11T00:37:44.055Z,98.30
2019-05-11T00:40:15.120Z,98.30
2019-05-11T00:42:44.796Z,98.40
2019-05-11T00:45:14.588Z,98.20
2019-05-11T00:47:44.102Z,98.20
2019-05-11T00:50:15.372Z,98.10
2019-05-11T00:52:44.930Z,98.10
2019-05-11T00:55:14.656Z,98.10
2019-05-11T00:57:44.146Z,98.10
2019-05-11T01:00:14.598Z,98.00
2019-05-11T01:02:44.154Z,98.00
2019-05-11T01:05:13.770Z,98.00
2019-05-11T01:07:43.245Z,98.00
2019-05-11T01:10:23.826Z,98.00
2019-05-11T01:12:44.127Z,98.10
2019-05-11T01:15:13.955Z,98.20
2019-05-11T01:17:43.422Z,98.20
2019-05-11T01:20:13.629Z,98.30
2019-05-11T01:22:43.088Z,98.30
2019-05-11T01:25:12.737Z,98.40
2019-05-11T01:27:42.250Z,98.50
2019-05-11T01:30:12.025Z,98.50
2019-05-11T01:32:41.507Z,98.50
2019-05-11T01:35:11.742Z,98.50
2019-05-11T01:37:41.204Z,98.60
2019-05-11T01:40:12.311Z,98.70
2019-05-11T01:42:41.800Z,98.80
2019-05-11T01:45:11.627Z,98.80
2019-05-11T01:47:41.140Z,98.90
2019-05-11T01:50:10.783Z,98.90
2019-05-11T01:52:40.294Z,99.00
2019-05-11T01:55:10.176Z,99.00
2019-05-11T01:57:39.644Z,99.00
2019-05-11T02:00:10.273Z,99.10
2019-05-11T02:02:39.929Z,99.00
2019-05-11T02:05:28.466Z,99.10
2019-05-11T02:07:59.421Z,99.20
2019-05-11T02:10:29.496Z,99.20
2019-05-11T02:12:59.014Z,99.20
2019-05-11T02:15:28.574Z,99.30
2019-05-11T02:17:58.000Z,99.30
2019-05-11T02:20:27.480Z,99.30
2019-05-11T02:22:56.962Z,99.30
2019-05-11T02:25:26.468Z,99.40
2019-05-11T02:27:55.954Z,99.40
2019-05-11T02:30:25.471Z,99.40
2019-05-11T02:32:54.932Z,99.40
2019-05-11T02:35:24.432Z,99.40
2019-05-11T02:37:53.908Z,99.50
2019-05-11T02:40:24.229Z,99.50
2019-05-11T02:42:53.757Z,99.60
2019-05-11T02:45:42.249Z,99.60
2019-05-11T02:48:12.219Z,99.70
2019-05-11T02:50:43.834Z,99.70
2019-05-11T02:53:13.640Z,99.70
2019-05-11T02:55:46.635Z,99.80
2019-05-11T02:58:16.444Z,99.80
2019-05-11T03:00:47.110Z,99.80
2019-05-11T03:03:16.618Z,99.90
2019-05-11T03:05:46.070Z,99.90
2019-05-11T03:08:16.276Z,99.90
2019-05-11T03:10:46.033Z,99.90
2019-05-11T03:13:15.546Z,99.90
2019-05-11T03:15:45.306Z,99.90
2019-05-11T03:18:15.545Z,99.90
2019-05-11T03:20:45.117Z,99.90
2019-05-11T03:23:14.589Z,99.90
2019-05-11T03:25:44.083Z,99.90
2019-05-11T03:28:13.564Z,99.90
2019-05-11T03:30:43.150Z,99.90
2019-05-11T03:33:12.710Z,99.90
2019-05-11T03:35:42.205Z,99.90
2019-05-11T03:38:11.669Z,99.90
2019-05-11T03:40:41.142Z,99.90
2019-05-11T03:43:10.684Z,99.90
2019-05-11T03:45:40.334Z,99.90
2019-05-11T03:48:09.831Z,99.90
2019-05-11T03:50:39.324Z,99.90
2019-05-11T03:53:08.834Z,99.90
2019-05-11T03:55:38.553Z,99.90
2019-05-11T03:58:07.994Z,99.90
2019-05-11T04:00:37.461Z,99.90
2019-05-11T04:03:06.953Z,99.90
2019-05-11T04:05:36.468Z,99.90
2019-05-11T04:08:05.966Z,99.90
2019-05-11T04:10:35.564Z,99.90
2019-05-11T04:13:05.078Z,99.90
2019-05-11T04:15:34.577Z,99.90
2019-05-11T04:18:04.178Z,99.90
2019-05-11T04:20:33.683Z,99.90
2019-05-11T04:23:03.162Z,99.90
2019-05-11T04:25:32.642Z,99.90
2019-05-11T04:28:02.194Z,99.90
2019-05-11T04:30:31.871Z,99.90
2019-05-11T04:33:01.335Z,99.90
2019-05-11T04:35:30.860Z,99.90
2019-05-11T04:38:00.498Z,99.90
2019-05-11T04:40:30.875Z,99.90
2019-05-11T04:43:00.393Z,99.90
2019-05-11T04:45:29.976Z,99.90
2019-05-11T04:47:59.525Z,99.90
2019-05-11T04:50:28.987Z,99.90
2019-05-11T04:52:58.482Z,99.90
2019-05-11T04:55:27.966Z,99.90
2019-05-11T04:57:57.436Z,99.90
2019-05-11T05:00:27.055Z,99.90
2019-05-11T05:02:56.613Z,99.90
2019-05-11T05:05:26.063Z,99.90
2019-05-11T05:08:08.600Z,99.90
2019-05-11T05:10:26.817Z,99.90
2019-05-11T05:13:09.666Z,99.90
2019-05-11T05:15:27.589Z,99.90
2019-05-11T05:17:57.158Z,99.90
2019-05-11T05:20:26.628Z,99.90
2019-05-11T05:22:56.154Z,99.90
2019-05-11T05:25:25.604Z,99.90
2019-05-11T05:27:55.120Z,99.90
2019-05-11T05:30:24.672Z,99.90
2019-05-11T05:32:54.198Z,99.90
2019-05-11T05:35:23.711Z,99.90
2019-05-11T05:37:53.189Z,99.90
2019-05-11T05:40:22.639Z,99.90
2019-05-11T05:43:01.823Z,99.90
2019-05-11T05:45:31.312Z,99.90
2019-05-11T05:48:00.831Z,99.90
2019-05-11T05:50:30.360Z,99.90
2019-05-11T05:52:59.899Z,99.90
2019-05-11T05:55:29.407Z,99.90
2019-05-11T05:57:58.967Z,99.90
2019-05-11T06:00:28.495Z,99.90
2019-05-11T06:02:57.968Z,99.90
2019-05-11T06:05:27.467Z,99.90
2019-05-11T06:07:57.037Z,99.90
2019-05-11T06:10:26.589Z,99.90
2019-05-11T06:12:56.117Z,99.90
2019-05-11T06:15:25.821Z,99.90
2019-05-11T06:17:55.335Z,99.90
2019-05-11T06:20:24.848Z,99.90
2019-05-11T06:22:54.371Z,99.90
2019-05-11T06:25:23.849Z,99.90
2019-05-11T06:27:53.322Z,99.90
2019-05-11T06:30:23.007Z,99.90
2019-05-11T06:32:52.429Z,99.90
2019-05-11T06:35:22.793Z,99.90
2019-05-11T06:37:52.466Z,99.90
2019-05-11T06:40:22.101Z,99.90
2019-05-11T06:42:51.620Z,99.90
2019-05-11T06:45:21.227Z,99.90
2019-05-11T06:47:52.105Z,99.90
2019-05-11T06:50:21.820Z,99.90
2019-05-11T06:52:51.283Z,99.90
2019-05-11T06:55:20.743Z,99.90
2019-05-11T06:57:50.255Z,99.90
2019-05-11T07:00:20.027Z,99.90
2019-05-11T07:02:49.557Z,99.90
2019-05-11T07:05:19.191Z,99.90
2019-05-11T07:07:48.643Z,99.90
2019-05-11T07:10:18.272Z,99.80
2019-05-11T07:12:47.728Z,99.70
2019-05-11T07:15:17.422Z,99.60
2019-05-11T07:17:47.024Z,99.60
2019-05-11T07:20:16.727Z,99.50
2019-05-11T07:22:46.239Z,99.60
2019-05-11T07:25:15.834Z,99.80
2019-05-11T07:27:45.340Z,99.90
2019-05-11T07:30:15.070Z,99.80
2019-05-11T07:32:44.539Z,99.50
2019-05-11T07:35:14.467Z,99.50
2019-05-11T07:37:44.037Z,99.40
2019-05-11T07:40:13.742Z,99.20
2019-05-11T07:42:43.275Z,99.20
2019-05-11T07:45:13.217Z,98.80
2019-05-11T07:47:42.698Z,98.70
2019-05-11T07:50:12.468Z,98.40
2019-05-11T07:52:41.955Z,98.20
2019-05-11T07:55:12.042Z,97.60
2019-05-11T07:57:41.585Z,97.80
2019-05-11T08:00:11.398Z,97.80
2019-05-11T08:02:40.876Z,97.80
2019-05-11T08:05:11.178Z,97.60
2019-05-11T08:07:40.668Z,97.70
2019-05-11T08:10:11.944Z,97.90
2019-05-11T08:12:41.462Z,98.00
2019-05-11T08:15:13.631Z,97.90
2019-05-11T08:17:42.396Z,98.00
2019-05-11T08:20:12.238Z,97.60
2019-05-11T08:22:41.700Z,97.30
2019-05-11T08:25:11.282Z,97.40
2019-05-11T08:27:40.748Z,97.20
2019-05-11T08:30:12.924Z,97.00
2019-05-11T08:32:42.416Z,97.10
2019-05-11T08:35:12.313Z,97.20
2019-05-11T08:37:44.177Z,97.10
2019-05-11T08:40:18.344Z,96.70
2019-05-11T08:42:48.410Z,96.70
2019-05-11T08:45:24.020Z,96.50
2019-05-11T08:47:52.874Z,96.70
2019-05-11T08:50:22.803Z,96.60
2019-05-11T08:52:52.606Z,96.50
2019-05-11T08:55:22.516Z,96.50
2019-05-11T08:57:52.259Z,96.50
2019-05-11T09:00:21.961Z,96.20
2019-05-11T09:02:51.460Z,95.80
2019-05-11T09:05:21.008Z,94.90
2019-05-11T09:07:50.444Z,94.50
2019-05-11T09:10:19.934Z,95.10
2019-05-11T09:12:49.479Z,95.20
2019-05-11T09:15:32.297Z,95.20
2019-05-11T09:17:50.308Z,94.90
2019-05-11T09:20:20.141Z,95.30
2019-05-11T09:22:49.746Z,95.30
2019-05-11T09:25:19.296Z,94.60
2019-05-11T09:27:48.740Z,93.80
2019-05-11T09:30:19.025Z,91.40
2019-05-11T09:32:48.529Z,89.40
2019-05-11T09:35:18.907Z,90.80
2019-05-11T09:37:48.854Z,91.30
2019-05-11T09:40:19.018Z,91.30
2019-05-11T09:42:48.566Z,91.30
2019-05-11T09:45:18.855Z,90.90
2019-05-11T09:47:48.561Z,91.20
2019-05-11T09:50:18.649Z,90.40
2019-05-11T09:52:49.055Z,89.90
2019-05-11T09:55:19.236Z,90.20
2019-05-11T09:57:48.978Z,90.40
2019-05-11T10:00:18.753Z,89.10
2019-05-11T10:02:48.873Z,89.70
2019-05-11T10:05:19.085Z,88.70
2019-05-11T10:07:48.709Z,89.80
2019-05-11T10:10:18.915Z,89.40
2019-05-11T10:12:52.519Z,88.50
2019-05-11T10:15:20.300Z,89.80
2019-05-11T10:17:49.815Z,90.10
2019-05-11T10:20:19.356Z,88.40
2019-05-11T10:22:48.875Z,86.20
2019-05-11T10:25:18.523Z,86.80
2019-05-11T10:27:48.917Z,86.60
2019-05-11T10:30:20.028Z,87.50
2019-05-11T10:32:49.564Z,88.80
2019-05-11T10:35:19.047Z,89.90
2019-05-11T10:37:48.563Z,89.10
2019-05-11T10:40:19.151Z,89.30
2019-05-11T10:42:48.698Z,88.30
2019-05-11T10:45:18.307Z,85.80
2019-05-11T10:47:49.014Z,83.70
2019-05-11T10:50:19.070Z,85.40
2019-05-11T10:52:48.738Z,84.70
2019-05-11T10:55:19.393Z,84.60
2019-05-11T10:57:49.086Z,84.70
2019-05-11T11:00:22.239Z,83.20
2019-05-11T11:02:51.777Z,82.30
2019-05-11T11:05:21.273Z,79.50
2019-05-11T11:07:50.811Z,79.70
2019-05-11T11:10:20.599Z,79.20
2019-05-11T11:12:50.007Z,78.10
2019-05-11T11:15:19.975Z,78.90
2019-05-11T11:17:49.491Z,78.40
2019-05-11T11:20:19.812Z,79.00
2019-05-11T11:22:49.278Z,79.00
2019-05-11T11:25:18.995Z,74.60
2019-05-11T11:27:48.884Z,73.50
2019-05-11T11:30:19.628Z,75.70
2019-05-11T11:32:49.124Z,73.60
2019-05-11T11:35:18.978Z,74.20
2019-05-11T11:37:48.519Z,74.80
2019-05-11T11:40:18.413Z,74.50
2019-05-11T11:42:48.062Z,74.60
2019-05-11T11:45:19.174Z,73.90
2019-05-11T11:47:49.470Z,71.90
2019-05-11T11:50:19.824Z,71.80
2019-05-11T11:52:49.382Z,72.80
2019-05-11T11:55:19.211Z,71.30
2019-05-11T11:57:50.424Z,72.00
2019-05-11T12:00:20.590Z,71.70
2019-05-11T12:02:50.174Z,71.50
2019-05-11T12:05:19.627Z,72.00
2019-05-11T12:07:49.307Z,71.50
2019-05-11T12:10:19.269Z,72.20
2019-05-11T12:12:48.769Z,72.70
2019-05-11T12:15:18.552Z,75.10
2019-05-11T12:17:48.488Z,75.50
2019-05-11T12:20:18.701Z,76.40
2019-05-11T12:22:48.176Z,74.70
2019-05-11T12:25:18.513Z,72.80
2019-05-11T12:27:49.118Z,71.90
2019-05-11T12:30:18.907Z,72.30
2019-05-11T12:32:50.306Z,70.80
2019-05-11T12:35:20.256Z,71.70
2019-05-11T12:37:49.698Z,72.10
2019-05-11T12:40:19.660Z,69.20
2019-05-11T12:42:49.270Z,69.10
2019-05-11T12:45:18.923Z,69.30
2019-05-11T12:47:48.483Z,71.40
2019-05-11T12:50:18.841Z,71.70
2019-05-11T12:52:48.435Z,71.10
2019-05-11T12:55:18.238Z,68.60
2019-05-11T12:57:48.178Z,65.90
2019-05-11T13:00:19.681Z,67.60
2019-05-11T13:02:49.136Z,66.70
2019-05-11T13:05:18.647Z,63.90
2019-05-11T13:07:48.463Z,64.40
2019-05-11T13:10:18.524Z,64.40
2019-05-11T13:12:49.382Z,64.90
2019-05-11T13:15:19.654Z,66.60
2019-05-11T13:17:49.447Z,65.30
2019-05-11T13:20:19.133Z,62.70
2019-05-11T13:22:49.095Z,63.20
2019-05-11T13:25:18.545Z,64.60
2019-05-11T13:27:49.109Z,66.20
2019-05-11T13:30:19.594Z,66.20
2019-05-11T13:32:49.491Z,66.70
2019-05-11T13:35:18.931Z,66.70
2019-05-11T13:37:48.575Z,64.40
2019-05-11T13:40:18.697Z,61.80
2019-05-11T13:42:49.813Z,63.10
2019-05-11T13:45:19.460Z,64.50
2019-05-11T13:47:55.344Z,65.00
2019-05-11T13:50:20.402Z,63.50
2019-05-11T13:52:49.993Z,62.90
2019-05-11T13:55:19.412Z,62.30
2019-05-11T13:57:48.902Z,62.90
2019-05-11T14:00:18.532Z,63.10
2019-05-11T14:02:48.793Z,64.10
2019-05-11T14:05:18.445Z,63.60
2019-05-11T14:07:48.427Z,65.00
2019-05-11T14:10:18.290Z,61.30
2019-05-11T14:12:48.214Z,62.50
2019-05-11T14:15:18.750Z,62.40
2019-05-11T14:17:48.899Z,61.60
2019-05-11T14:20:20.005Z,61.00
2019-05-11T14:22:49.519Z,59.30
2019-05-11T14:25:19.100Z,61.40
2019-05-11T14:27:48.771Z,63.70
2019-05-11T14:30:19.348Z,64.20
2019-05-11T14:32:49.120Z,61.60
2019-05-11T14:35:19.058Z,60.90
2019-05-11T14:37:48.929Z,61.50
2019-05-11T14:40:18.574Z,60.70
2019-05-11T14:42:48.996Z,60.90
2019-05-11T14:45:19.034Z,59.90
2019-05-11T14:47:48.853Z,61.40
2019-05-11T14:50:18.913Z,60.70
2019-05-11T14:52:49.163Z,60.30
2019-05-11T14:55:18.908Z,62.60
2019-05-11T14:57:48.849Z,62.40
2019-05-11T15:00:19.228Z,63.90
2019-05-11T15:02:49.762Z,62.70
2019-05-11T15:05:21.046Z,62.70
2019-05-11T15:07:52.733Z,59.90
2019-05-11T15:10:22.179Z,60.20
2019-05-11T15:12:51.723Z,60.00
2019-05-11T15:15:21.387Z,58.40
2019-05-11T15:17:50.858Z,58.50
2019-05-11T15:20:20.695Z,58.00
2019-05-11T15:22:50.197Z,58.50
2019-05-11T15:25:20.372Z,58.50
2019-05-11T15:27:49.929Z,57.80
2019-05-11T15:30:20.126Z,56.90
2019-05-11T15:32:49.558Z,58.40
2019-05-11T15:35:19.242Z,59.90
2019-05-11T15:37:49.029Z,59.00
2019-05-11T15:40:20.782Z,57.60
2019-05-11T15:42:50.426Z,57.30
2019-05-11T15:45:20.779Z,57.70
2019-05-11T15:47:50.535Z,57.50
2019-05-11T15:50:20.815Z,58.40
2019-05-11T15:52:50.331Z,58.40
2019-05-11T15:55:21.394Z,58.50
2019-05-11T15:57:51.028Z,57.70
2019-05-11T16:00:21.084Z,58.10
2019-05-11T16:02:50.605Z,57.00
2019-05-11T16:05:20.452Z,58.00
2019-05-11T16:07:49.957Z,56.90
2019-05-11T16:10:20.423Z,56.70
2019-05-11T16:12:49.951Z,56.90
2019-05-11T16:15:20.462Z,57.60
2019-05-11T16:17:50.690Z,57.20
2019-05-11T16:20:20.406Z,56.80
2019-05-11T16:22:50.036Z,57.30
2019-05-11T16:25:20.289Z,56.50
2019-05-11T16:27:49.831Z,57.70
2019-05-11T16:30:21.766Z,57.90
2019-05-11T16:32:51.485Z,57.70
2019-05-11T16:35:21.099Z,58.50
2019-05-11T16:37:50.663Z,58.30
2019-05-11T16:40:21.218Z,58.50
2019-05-11T16:42:50.767Z,59.00
2019-05-11T16:45:23.548Z,58.60
2019-05-11T16:47:51.788Z,58.80
2019-05-11T16:50:21.273Z,58.90
2019-05-11T16:52:50.757Z,59.60
2019-05-11T16:55:20.349Z,59.90
2019-05-11T16:57:50.350Z,60.30
2019-05-11T17:00:20.113Z,59.70
2019-05-11T17:02:49.671Z,59.10
2019-05-11T17:05:26.297Z,59.40
2019-05-11T17:07:50.358Z,60.00
2019-05-11T17:10:20.059Z,59.90
2019-05-11T17:12:49.339Z,59.90
2019-05-11T17:15:19.344Z,59.10
2019-05-11T17:17:49.818Z,59.90
2019-05-11T17:20:19.540Z,60.50
2019-05-11T17:22:50.804Z,59.80
2019-05-11T17:25:21.172Z,60.80
2019-05-11T17:27:50.690Z,60.10
2019-05-11T17:30:20.883Z,59.70
2019-05-11T17:32:50.372Z,60.10
2019-05-11T17:35:19.891Z,60.10
2019-05-11T17:37:49.332Z,60.80
2019-05-11T17:40:23.083Z,60.60
2019-05-11T17:42:53.662Z,60.10
2019-05-11T17:45:21.595Z,61.00
2019-05-11T17:47:51.154Z,61.10
2019-05-11T17:50:20.761Z,60.80
2019-05-11T17:52:50.358Z,61.10
2019-05-11T17:55:19.627Z,61.10
2019-05-11T17:57:53.185Z,61.00
2019-05-11T18:00:20.779Z,61.50
2019-05-11T18:02:50.389Z,62.10
2019-05-11T18:05:19.890Z,62.60
2019-05-11T18:07:49.397Z,62.60
2019-05-11T18:10:19.515Z,63.20
2019-05-11T18:12:49.228Z,63.30
2019-05-11T18:15:19.273Z,63.70
2019-05-11T18:17:49.091Z,64.00
2019-05-11T18:20:21.699Z,64.20
2019-05-11T18:22:50.800Z,64.30
2019-05-11T18:25:20.514Z,64.40
2019-05-11T18:27:50.006Z,64.10
2019-05-11T18:30:20.173Z,64.50
2019-05-11T18:32:49.744Z,64.60
2019-05-11T18:35:19.850Z,65.30
2019-05-11T18:37:49.428Z,65.30
2019-05-11T18:40:19.195Z,65.30
2019-05-11T18:42:49.136Z,65.20
2019-05-11T18:45:19.324Z,64.50
2019-05-11T18:47:49.551Z,64.20
2019-05-11T18:50:29.798Z,64.00
2019-05-11T18:52:50.450Z,64.20
2019-05-11T18:55:20.016Z,64.60
2019-05-11T18:57:49.695Z,64.20
2019-05-11T19:00:19.576Z,64.50
2019-05-11T19:02:49.813Z,65.00
2019-05-11T19:05:19.527Z,65.00
2019-05-11T19:07:49.071Z,65.50
2019-05-11T19:10:18.776Z,65.80
2019-05-11T19:12:48.902Z,66.20
2019-05-11T19:15:19.351Z,66.50
2019-05-11T19:17:49.322Z,66.90
2019-05-11T19:20:19.232Z,67.30
2019-05-11T19:22:48.738Z,67.70
2019-05-11T19:25:18.526Z,68.00
2019-05-11T19:27:50.582Z,68.60
2019-05-11T19:30:20.023Z,69.00
2019-05-11T19:32:49.815Z,69.40
2019-05-11T19:35:20.946Z,70.50
2019-05-11T19:37:50.951Z,70.10
2019-05-11T19:40:20.530Z,70.40
2019-05-11T19:42:54.699Z,70.70
2019-05-11T19:45:24.640Z,71.40
2019-05-11T19:47:54.146Z,72.20
2019-05-11T19:50:23.736Z,71.60
2019-05-11T19:52:53.421Z,71.90
2019-05-11T19:55:22.977Z,72.20
2019-05-11T19:57:52.548Z,72.40
2019-05-11T20:00:22.159Z,72.60
2019-05-11T20:02:51.721Z,73.00
2019-05-11T20:05:21.271Z,73.50
2019-05-11T20:07:50.751Z,73.60
2019-05-11T20:10:20.353Z,74.00
2019-05-11T20:12:49.838Z,74.80
2019-05-11T20:15:19.397Z,75.10
2019-05-11T20:17:49.260Z,75.00
2019-05-11T20:20:19.098Z,75.30
2019-05-11T20:22:48.909Z,75.30
2019-05-11T20:25:19.245Z,76.00
2019-05-11T20:27:49.369Z,76.20
2019-05-11T20:30:19.523Z,76.30
2019-05-11T20:32:49.516Z,76.40
2019-05-11T20:35:19.151Z,76.40
2019-05-11T20:37:48.604Z,76.50
2019-05-11T20:40:18.549Z,76.80
2019-05-11T20:42:48.724Z,77.00
2019-05-11T20:45:18.970Z,77.10
2019-05-11T20:47:49.157Z,77.90
2019-05-11T20:50:18.950Z,78.00
2019-05-11T20:52:49.233Z,78.60
2019-05-11T20:55:18.767Z,78.80
2019-05-11T20:57:48.803Z,78.60
2019-05-11T21:00:18.948Z,79.10
2019-05-11T21:02:49.211Z,79.20
2019-05-11T21:05:18.979Z,79.60
2019-05-11T21:07:48.441Z,79.80
2019-05-11T21:10:18.626Z,80.00
2019-05-11T21:12:48.090Z,80.40
2019-05-11T21:15:18.023Z,80.40
2019-05-11T21:17:50.219Z,80.80
2019-05-11T21:20:18.969Z,81.10
2019-05-11T21:22:48.859Z,81.00
2019-05-11T21:25:19.381Z,81.30
2019-05-11T21:27:48.932Z,81.40
2019-05-11T21:30:18.939Z,81.40
2019-05-11T21:32:48.562Z,81.60
2019-05-11T21:35:19.260Z,81.90
2019-05-11T21:37:49.119Z,81.70
2019-05-11T21:40:18.794Z,81.90
2019-05-11T21:42:48.377Z,82.50
2019-05-11T21:45:18.479Z,82.20
2019-05-11T21:47:49.025Z,82.50
2019-05-11T21:50:19.396Z,82.80
2019-05-11T21:52:49.001Z,82.90
2019-05-11T21:55:18.451Z,82.90
2019-05-11T21:57:49.732Z,83.30
2019-05-11T22:00:20.467Z,83.30
2019-05-11T22:02:49.953Z,83.50
2019-05-11T22:05:20.941Z,83.80
2019-05-11T22:07:50.548Z,84.00
2019-05-11T22:10:20.560Z,83.90
2019-05-11T22:12:50.107Z,84.10
2019-05-11T22:15:19.677Z,84.30
2019-05-11T22:17:49.172Z,84.60
2019-05-11T22:20:18.862Z,85.20
2019-05-11T22:22:48.403Z,85.40
2019-05-11T22:25:18.473Z,85.70
2019-05-11T22:27:48.737Z,86.00
2019-05-11T22:30:18.822Z,86.10
2019-05-11T22:32:48.442Z,86.20
2019-05-11T22:35:18.515Z,87.00
2019-05-11T22:37:51.150Z,86.40
2019-05-11T22:40:20.639Z,87.00
2019-05-11T22:42:50.121Z,87.30
2019-05-11T22:45:19.732Z,87.50
2019-05-11T22:47:49.319Z,88.60
2019-05-11T22:50:18.992Z,88.10
2019-05-11T22:52:48.784Z,88.30
2019-05-11T22:55:19.075Z,88.90
2019-05-11T22:57:48.836Z,89.00
2019-05-11T23:00:23.044Z,89.20
2019-05-11T23:02:54.549Z,89.40
2019-05-11T23:05:23.734Z,89.40
2019-05-11T23:07:53.222Z,89.60
2019-05-11T23:10:22.698Z,89.80
2019-05-11T23:12:56.379Z,90.00
2019-05-11T23:15:23.654Z,90.00
2019-05-11T23:17:53.284Z,90.20
2019-05-11T23:20:22.794Z,90.20
2019-05-11T23:22:57.934Z,90.40
2019-05-11T23:25:23.434Z,90.50
2019-05-11T23:27:52.942Z,90.40
2019-05-11T23:30:23.252Z,90.50
2019-05-11T23:32:52.730Z,90.60
2019-05-11T23:35:22.304Z,90.70
2019-05-11T23:37:51.768Z,90.80
2019-05-11T23:40:21.766Z,91.00
2019-05-11T23:42:51.310Z,91.20
2019-05-11T23:45:21.068Z,91.10
2019-05-11T23:47:50.544Z,91.20
2019-05-11T23:50:22.073Z,91.20
2019-05-11T23:53:05.447Z,91.50
2019-05-11T23:55:22.727Z,91.30
2019-05-11T23:57:52.195Z,91.30
